Time;durP1;ratioP1;P1;durP2;ratioP2;P2;SDS_P1;SDS_P2;PMS_P1;PMS_P2;Temp;Humidity;BMP_temperature;BMP_pressure;BME280_temperature;BME280_humidity;BME280_pressure;Samples;Min_cycle;Max_cycle;Signal;HPM_P1;HPM_P2
2022/10/25 00:01:52;;;;;;;21.48;5.70;;;12.40;99.90;;;;;;6340049;22;20029;-80
2022/10/25 00:04:18;;;;;;;25.65;6.95;;;12.30;99.90;;;;;;6312393;22;20011;-79
2022/10/25 00:06:43;;;;;;;26.65;6.57;;;12.40;99.90;;;;;;6340323;22;20018;-80
2022/10/25 00:09:09;;;;;;;25.90;7.60;;;12.40;99.90;;;;;;6340305;22;20053;-79
2022/10/25 00:11:35;;;;;;;24.75;6.75;;;12.40;99.90;;;;;;6340555;22;20069;-80
2022/10/25 00:14:04;;;;;;;22.30;7.80;;;12.40;99.90;;;;;;6312319;22;20010;-80
2022/10/25 00:16:32;;;;;;;21.42;7.03;;;12.40;99.90;;;;;;6339905;22;20014;-80
2022/10/25 00:18:57;;;;;;;23.98;7.38;;;12.40;99.90;;;;;;6312132;22;20018;-80
2022/10/25 00:21:24;;;;;;;25.90;8.10;;;12.50;99.90;;;;;;6339673;22;20531;-80
2022/10/25 00:23:51;;;;;;;21.48;7.80;;;12.40;99.90;;;;;;6340168;22;20099;-79
2022/10/25 00:26:17;;;;;;;23.92;8.45;;;12.40;99.90;;;;;;6312189;22;20044;-79
2022/10/25 00:28:42;;;;;;;30.60;8.85;;;12.40;99.90;;;;;;6312196;22;20089;-78
2022/10/25 00:31:14;;;;;;;28.15;9.43;;;12.40;99.90;;;;;;6311949;22;20050;-79
2022/10/25 00:33:42;;;;;;;25.58;8.35;;;12.40;99.90;;;;;;6312223;22;20480;-80
2022/10/25 00:36:09;;;;;;;26.58;7.95;;;12.50;99.90;;;;;;6339734;22;20449;-79
2022/10/25 00:38:35;;;;;;;19.60;8.10;;;12.40;99.90;;;;;;6340065;22;20015;-80
2022/10/25 00:41:01;;;;;;;28.98;9.05;;;12.40;99.90;;;;;;6340127;22;20011;-79
2022/10/25 00:43:35;;;;;;;21.50;8.77;;;12.40;99.90;;;;;;6340060;22;20050;-80
2022/10/25 00:46:07;;;;;;;25.55;8.05;;;12.40;99.90;;;;;;6340107;22;20015;-79
2022/10/25 00:48:33;;;;;;;26.67;8.00;;;12.40;99.90;;;;;;6339756;22;20015;-80
2022/10/25 00:50:59;;;;;;;29.30;8.85;;;12.50;99.90;;;;;;6312052;22;20461;-80
2022/10/25 00:53:34;;;;;;;27.98;9.30;;;12.50;99.90;;;;;;6339860;22;20052;-78
2022/10/25 00:56:09;;;;;;;26.08;9.77;;;12.50;99.90;;;;;;6339929;22;20059;-80
2022/10/25 00:58:37;;;;;;;24.45;9.25;;;12.60;99.90;;;;;;6339880;22;20103;-79
2022/10/25 01:01:07;;;;;;;22.80;9.32;;;12.50;99.90;;;;;;6339615;22;20086;-79
2022/10/25 01:03:35;;;;;;;31.58;9.70;;;12.50;99.90;;;;;;6311854;22;20091;-78
2022/10/25 01:06:04;;;;;;;39.88;10.63;;;12.60;99.90;;;;;;6311874;22;20015;-79
2022/10/25 01:08:30;;;;;;;31.33;10.93;;;12.50;99.90;;;;;;6311819;22;20014;-80
2022/10/25 01:10:56;;;;;;;39.72;12.73;;;12.50;99.90;;;;;;6339812;22;20049;-80
2022/10/25 01:13:24;;;;;;;35.58;11.00;;;12.60;99.90;;;;;;6339751;22;20014;-81
2022/10/25 01:16:00;;;;;;;31.65;12.02;;;12.60;99.90;;;;;;6339747;22;20014;-80
2022/10/25 01:18:42;;;;;;;33.13;11.00;;;12.60;99.90;;;;;;6339652;22;20014;-79
2022/10/25 01:21:30;;;;;;;29.20;11.55;;;12.60;99.90;;;;;;6339314;22;20022;-80
2022/10/25 01:24:24;;;;;;;40.58;12.00;;;12.60;99.90;;;;;;6339817;22;20019;-79
2022/10/25 01:27:11;;;;;;;38.65;12.20;;;12.60;99.90;;;;;;6339263;22;20067;-79
2022/10/25 01:30:00;;;;;;;31.50;10.93;;;12.60;99.90;;;;;;6340042;22;20054;-79
2022/10/25 01:32:52;;;;;;;34.30;11.13;;;12.60;99.90;;;;;;6339714;22;20011;-79
2022/10/25 01:35:30;;;;;;;34.38;10.88;;;12.60;99.90;;;;;;6332509;22;20054;-79
2022/10/25 01:38:07;;;;;;;37.15;12.70;;;12.60;99.90;;;;;;6339313;22;20462;-79
2022/10/25 01:40:56;;;;;;;31.27;11.07;;;12.60;99.90;;;;;;6311634;22;20019;-79
2022/10/25 01:43:33;;;;;;;36.05;12.35;;;12.70;99.90;;;;;;6339895;22;20034;-79
2022/10/25 01:46:13;;;;;;;30.13;11.05;;;12.60;99.90;;;;;;6339416;22;20019;-79
2022/10/25 01:48:44;;;;;;;33.95;11.18;;;12.70;99.90;;;;;;6339272;22;20018;-79
2022/10/25 01:51:14;;;;;;;30.08;11.63;;;12.70;99.90;;;;;;6339823;22;20117;-79
2022/10/25 01:53:45;;;;;;;30.58;12.13;;;12.60;99.90;;;;;;6311526;22;20015;-79
2022/10/25 01:56:20;;;;;;;28.02;11.98;;;12.60;99.90;;;;;;6339562;22;20046;-79
2022/10/25 01:59:07;;;;;;;39.05;11.40;;;12.70;99.90;;;;;;6340135;22;20022;-80
2022/10/25 02:01:50;;;;;;;31.35;10.98;;;12.70;99.90;;;;;;6312541;22;20375;-79
2022/10/25 02:04:34;;;;;;;27.35;12.00;;;12.60;99.90;;;;;;6339603;22;20072;-79
2022/10/25 02:07:28;;;;;;;26.42;10.52;;;12.60;99.90;;;;;;6311423;22;20011;-79
2022/10/25 02:10:21;;;;;;;30.20;11.27;;;12.60;99.90;;;;;;6339543;22;20086;-79
2022/10/25 02:13:00;;;;;;;32.67;12.10;;;12.60;99.90;;;;;;6337922;22;20040;-80
2022/10/25 02:16:01;;;;;;;30.67;11.57;;;12.50;99.90;;;;;;6339421;22;20018;-79
2022/10/25 02:18:33;;;;;;;30.42;10.68;;;12.50;99.90;;;;;;6213012;23;20083;-79
2022/10/25 02:21:00;;;;;;;28.58;10.63;;;12.50;99.90;;;;;;6317985;22;20373;-79
2022/10/25 02:23:27;;;;;;;27.17;10.70;;;12.50;99.90;;;;;;6311329;22;20050;-79
2022/10/25 02:25:53;;;;;;;28.80;12.75;;;12.50;99.90;;;;;;6339348;22;20141;-80
2022/10/25 02:28:23;;;;;;;32.67;12.02;;;12.50;99.90;;;;;;6339505;22;20018;-79
2022/10/25 02:30:50;;;;;;;31.02;11.43;;;12.50;99.90;;;;;;6311425;22;20019;-79
2022/10/25 02:33:15;;;;;;;24.17;9.27;;;12.40;99.90;;;;;;6339312;22;20019;-80
2022/10/25 02:35:41;;;;;;;26.75;10.65;;;12.50;99.90;;;;;;6338973;22;20057;-79
2022/10/25 02:38:07;;;;;;;28.05;10.73;;;12.50;99.90;;;;;;6339556;22;20018;-79
2022/10/25 02:40:33;;;;;;;22.45;10.82;;;12.40;99.90;;;;;;6340715;22;20019;-79
2022/10/25 02:42:58;;;;;;;27.52;9.77;;;12.40;99.90;;;;;;6341165;22;20015;-80
2022/10/25 02:45:24;;;;;;;27.30;9.65;;;12.40;99.90;;;;;;6340764;22;20017;-80
2022/10/25 02:47:50;;;;;;;24.30;9.23;;;12.30;99.90;;;;;;6341038;22;20011;-79
2022/10/25 02:50:15;;;;;;;28.58;9.60;;;12.30;99.90;;;;;;6341084;22;20365;-79
2022/10/25 02:52:41;;;;;;;19.63;8.75;;;12.40;99.90;;;;;;6340984;22;20018;-79
2022/10/25 02:55:07;;;;;;;25.83;10.10;;;12.30;99.90;;;;;;6313245;22;20011;-79
2022/10/25 02:57:34;;;;;;;26.00;8.93;;;12.40;99.90;;;;;;6340972;22;20093;-79
2022/10/25 02:59:59;;;;;;;23.88;8.07;;;12.40;99.90;;;;;;6340494;22;20018;-80
2022/10/25 03:02:25;;;;;;;25.58;9.88;;;12.40;99.90;;;;;;6340511;22;20013;-80
2022/10/25 03:04:51;;;;;;;23.55;8.68;;;12.30;99.90;;;;;;6340895;22;20010;-79
2022/10/25 03:07:16;;;;;;;21.38;8.80;;;12.30;99.90;;;;;;6312944;22;20021;-80
2022/10/25 03:09:42;;;;;;;26.05;7.72;;;12.30;99.90;;;;;;6340436;22;20067;-80
2022/10/25 03:12:07;;;;;;;25.52;9.38;;;12.30;99.90;;;;;;6340886;22;20489;-80
2022/10/25 03:14:33;;;;;;;22.00;8.05;;;12.30;99.90;;;;;;6312980;22;20023;-80
2022/10/25 03:16:58;;;;;;;22.75;8.70;;;12.30;99.90;;;;;;6340447;22;20319;-80
2022/10/25 03:19:24;;;;;;;22.85;8.07;;;12.30;99.90;;;;;;6338743;22;20064;-79
2022/10/25 03:21:50;;;;;;;26.23;8.25;;;12.20;99.90;;;;;;6340146;22;20442;-79
2022/10/25 03:24:15;;;;;;;21.05;8.52;;;12.30;99.90;;;;;;6340773;22;20011;-79
2022/10/25 03:26:41;;;;;;;24.52;9.20;;;12.20;99.90;;;;;;6340757;22;20010;-79
2022/10/25 03:29:07;;;;;;;30.48;9.95;;;12.20;99.90;;;;;;6312803;22;20323;-80
2022/10/25 03:31:32;;;;;;;24.25;9.00;;;12.20;99.90;;;;;;6312733;22;20022;-80
2022/10/25 03:33:58;;;;;;;26.05;8.82;;;12.20;99.90;;;;;;6340349;22;20458;-80
2022/10/25 03:36:23;;;;;;;26.98;8.75;;;12.10;99.90;;;;;;6312871;22;20017;-79
2022/10/25 03:38:49;;;;;;;29.02;9.50;;;12.10;99.90;;;;;;6340438;22;20006;-80
2022/10/25 03:41:15;;;;;;;29.42;9.07;;;12.10;99.90;;;;;;6340162;22;20042;-80
2022/10/25 03:43:40;;;;;;;29.52;10.13;;;12.20;99.90;;;;;;6340456;22;20007;-79
2022/10/25 03:46:06;;;;;;;30.15;9.65;;;12.20;99.90;;;;;;6340506;22;20014;-79
2022/10/25 03:48:32;;;;;;;26.67;9.63;;;12.10;99.90;;;;;;6340526;22;20015;-79
2022/10/25 03:50:57;;;;;;;29.10;9.82;;;12.20;99.90;;;;;;6339988;22;20018;-80
2022/10/25 03:53:23;;;;;;;23.95;9.63;;;12.10;99.90;;;;;;6340103;22;20069;-80
2022/10/25 03:55:49;;;;;;;28.75;9.38;;;12.10;99.90;;;;;;6340385;22;20033;-79
2022/10/25 03:58:15;;;;;;;36.92;9.70;;;12.10;99.90;;;;;;6340327;22;20410;-80
2022/10/25 04:00:40;;;;;;;30.77;9.02;;;12.10;99.90;;;;;;6312380;22;20015;-80
2022/10/25 04:03:06;;;;;;;31.85;8.73;;;12.10;99.90;;;;;;6340370;22;20014;-80
2022/10/25 04:05:32;;;;;;;24.60;8.68;;;12.10;99.90;;;;;;6340303;22;20392;-80
2022/10/25 04:07:58;;;;;;;29.15;8.05;;;12.10;99.90;;;;;;6339978;22;20023;-80
2022/10/25 04:10:24;;;;;;;26.42;8.57;;;12.10;99.90;;;;;;6340005;22;20044;-80
2022/10/25 04:12:51;;;;;;;28.00;8.95;;;12.00;99.90;;;;;;6312332;22;20455;-80
2022/10/25 04:15:17;;;;;;;23.48;8.23;;;12.00;99.90;;;;;;6312366;22;20015;-79
2022/10/25 04:17:43;;;;;;;22.38;9.18;;;12.00;99.90;;;;;;6340202;22;20026;-79
2022/10/25 04:20:09;;;;;;;29.65;8.30;;;12.00;99.90;;;;;;6339433;22;20014;-80
2022/10/25 04:22:34;;;;;;;23.15;7.88;;;12.00;99.90;;;;;;6340255;22;20011;-80
2022/10/25 04:25:00;;;;;;;25.92;8.40;;;12.00;99.90;;;;;;6340183;22;20022;-80
2022/10/25 04:27:26;;;;;;;30.00;7.32;;;12.00;99.90;;;;;;6340195;22;20086;-80
2022/10/25 04:29:51;;;;;;;24.40;7.78;;;12.00;99.90;;;;;;6340167;22;20014;-80
2022/10/25 04:32:17;;;;;;;22.92;7.47;;;12.00;99.90;;;;;;6339887;22;20434;-79
2022/10/25 04:34:42;;;;;;;26.48;7.75;;;12.10;99.90;;;;;;6340103;22;20014;-80
2022/10/25 04:37:08;;;;;;;26.02;6.95;;;12.00;99.90;;;;;;6339853;22;20058;-80
2022/10/25 04:39:34;;;;;;;22.55;7.05;;;12.10;99.90;;;;;;6340203;22;20113;-80
2022/10/25 04:41:59;;;;;;;25.48;6.50;;;12.00;99.90;;;;;;6340098;22;20014;-79
2022/10/25 04:44:25;;;;;;;27.95;7.43;;;12.00;99.90;;;;;;6312137;22;20331;-80
2022/10/25 04:46:50;;;;;;;24.35;7.00;;;12.00;99.90;;;;;;6339733;22;20053;-80
2022/10/25 04:49:16;;;;;;;21.85;6.88;;;12.00;99.90;;;;;;6312045;22;20010;-80
2022/10/25 04:51:42;;;;;;;30.30;7.03;;;12.00;99.90;;;;;;6339927;22;20011;-80
2022/10/25 04:54:07;;;;;;;25.13;6.40;;;11.90;99.90;;;;;;6339964;22;20014;-78
2022/10/25 04:56:33;;;;;;;23.30;6.03;;;12.00;99.90;;;;;;6339491;22;20017;-79
2022/10/25 04:58:59;;;;;;;24.83;6.05;;;12.00;99.90;;;;;;6311891;22;20025;-79
2022/10/25 05:01:25;;;;;;;25.27;5.97;;;12.00;99.90;;;;;;6311816;22;20491;-79
2022/10/25 05:03:50;;;;;;;22.90;5.93;;;12.00;99.90;;;;;;6312002;22;20430;-80
2022/10/25 05:06:25;;;;;;;22.50;5.22;;;11.90;99.90;;;;;;6312722;22;20083;-80
2022/10/25 05:08:51;;;;;;;28.02;5.47;;;11.90;99.90;;;;;;6339872;22;20015;-79
2022/10/25 05:11:22;;;;;;;25.23;5.95;;;11.90;99.90;;;;;;6339864;22;20010;-80
2022/10/25 05:13:48;;;;;;;17.70;4.78;;;11.90;99.90;;;;;;6311886;22;20023;-80
2022/10/25 05:16:22;;;;;;;27.55;5.68;;;11.90;99.90;;;;;;6339558;22;20018;-80
2022/10/25 05:18:49;;;;;;;25.20;5.90;;;11.90;99.90;;;;;;6311863;22;20053;-80
2022/10/25 05:21:16;;;;;;;25.92;4.90;;;11.90;99.90;;;;;;6339373;22;20010;-79
2022/10/25 05:23:42;;;;;;;24.40;4.85;;;11.80;99.90;;;;;;6311662;22;20019;-80
2022/10/25 05:26:10;;;;;;;28.88;5.57;;;11.90;99.90;;;;;;6311668;22;20094;-80
2022/10/25 05:28:37;;;;;;;24.42;4.80;;;11.90;99.90;;;;;;6311763;22;20018;-79
2022/10/25 05:31:17;;;;;;;21.02;4.82;;;11.90;99.90;;;;;;6339665;22;20067;-79
2022/10/25 05:33:44;;;;;;;18.70;4.68;;;11.90;99.90;;;;;;6339339;22;20478;-80
2022/10/25 05:36:10;;;;;;;28.98;5.35;;;11.80;99.90;;;;;;6339613;22;20056;-79
2022/10/25 05:38:36;;;;;;;21.52;4.95;;;11.80;99.90;;;;;;6339327;22;20338;-80
2022/10/25 05:41:01;;;;;;;17.13;4.60;;;11.80;99.90;;;;;;6339655;22;20104;-80
2022/10/25 05:43:27;;;;;;;15.70;5.18;;;11.70;99.90;;;;;;6339589;22;20018;-79
2022/10/25 05:46:05;;;;;;;20.40;5.47;;;11.70;99.90;;;;;;6339643;22;20312;-79
2022/10/25 05:48:31;;;;;;;15.25;4.53;;;11.70;99.90;;;;;;6339658;22;20017;-79
2022/10/25 05:51:15;;;;;;;18.38;4.10;;;11.60;99.90;;;;;;6339620;22;20011;-80
2022/10/25 05:53:45;;;;;;;19.05;4.43;;;11.60;99.90;;;;;;6311530;22;20086;-80
2022/10/25 05:56:11;;;;;;;22.33;4.85;;;11.60;99.90;;;;;;6339649;22;20011;-80
2022/10/25 05:58:37;;;;;;;21.38;4.90;;;11.60;99.90;;;;;;6337568;22;20022;-80
2022/10/25 06:01:03;;;;;;;16.30;4.65;;;11.70;99.90;;;;;;6311576;22;20499;-80
2022/10/25 06:03:35;;;;;;;15.85;4.50;;;11.70;99.90;;;;;;6339454;22;20035;-80
2022/10/25 06:06:11;;;;;;;26.13;4.88;;;11.60;99.90;;;;;;6311931;22;20037;-80
2022/10/25 06:09:15;;;;;;;18.50;4.82;;;11.60;99.90;;;;;;6311595;22;20030;-80
2022/10/25 06:11:41;;;;;;;22.85;5.75;;;11.60;99.90;;;;;;6304637;22;20071;-80
2022/10/25 06:14:14;;;;;;;20.10;4.47;;;11.50;99.90;;;;;;6312225;22;20015;-81
2022/10/25 06:16:43;;;;;;;16.30;4.68;;;11.60;99.90;;;;;;6312429;22;20011;-81
2022/10/25 06:19:08;;;;;;;24.50;5.00;;;11.50;99.90;;;;;;6311759;22;20015;-81
2022/10/25 06:21:34;;;;;;;24.10;5.10;;;11.40;99.90;;;;;;6313354;22;20019;-80
2022/10/25 06:23:59;;;;;;;20.10;5.18;;;11.50;99.90;;;;;;6341228;22;20022;-80
2022/10/25 06:26:28;;;;;;;17.15;4.65;;;11.50;99.90;;;;;;6341188;22;20030;-80
2022/10/25 06:28:59;;;;;;;22.60;4.75;;;11.50;99.90;;;;;;6340751;22;20526;-79
2022/10/25 06:31:26;;;;;;;19.98;5.30;;;11.50;99.90;;;;;;6341116;22;20090;-79
2022/10/25 06:33:51;;;;;;;21.35;4.47;;;11.40;99.90;;;;;;6341098;22;20068;-79
2022/10/25 06:36:22;;;;;;;19.50;4.85;;;11.40;99.90;;;;;;6313108;22;20026;-79
2022/10/25 06:38:48;;;;;;;18.88;4.50;;;11.40;99.90;;;;;;6340962;22;20015;-79
2022/10/25 06:41:26;;;;;;;21.42;4.40;;;11.50;99.90;;;;;;6312943;22;20491;-79
2022/10/25 06:43:53;;;;;;;21.67;4.32;;;11.50;99.90;;;;;;6340932;22;20011;-80
2022/10/25 06:46:27;;;;;;;21.75;4.55;;;11.50;99.90;;;;;;6339687;22;20102;-79
2022/10/25 06:48:54;;;;;;;20.38;4.22;;;11.50;99.90;;;;;;6340731;22;20010;-79
2022/10/25 06:51:20;;;;;;;29.48;5.03;;;11.60;99.90;;;;;;6340283;22;20042;-79
2022/10/25 06:53:47;;;;;;;26.73;4.75;;;11.50;99.90;;;;;;6340578;22;20011;-79
2022/10/25 06:56:13;;;;;;;16.38;4.53;;;11.60;99.90;;;;;;6340217;22;20022;-79
2022/10/25 06:58:39;;;;;;;21.23;4.88;;;11.60;99.90;;;;;;6340466;22;20037;-79
2022/10/25 07:01:08;;;;;;;30.13;5.88;;;11.50;99.90;;;;;;6312544;22;20430;-79
2022/10/25 07:03:34;;;;;;;24.98;4.93;;;11.60;99.90;;;;;;6340212;22;20033;-80
2022/10/25 07:06:01;;;;;;;31.40;5.57;;;11.60;99.90;;;;;;6340462;22;20379;-78
2022/10/25 07:08:27;;;;;;;18.98;5.63;;;11.60;99.90;;;;;;6340433;22;20014;-79
2022/10/25 07:10:56;;;;;;;19.05;5.15;;;11.70;99.90;;;;;;6340453;22;20106;-79
2022/10/25 07:13:22;;;;;;;22.00;5.30;;;11.70;99.90;;;;;;6340026;22;20022;-79
2022/10/25 07:15:48;;;;;;;21.45;5.13;;;11.60;99.90;;;;;;6340309;22;20022;-78
2022/10/25 07:18:14;;;;;;;19.60;5.05;;;11.70;99.90;;;;;;6340099;22;20019;-79
2022/10/25 07:20:40;;;;;;;22.00;4.95;;;11.60;99.90;;;;;;6312160;22;20529;-79
2022/10/25 07:23:05;;;;;;;24.75;5.18;;;11.70;99.90;;;;;;6340029;22;20026;-79
2022/10/25 07:25:31;;;;;;;25.60;5.57;;;11.80;99.90;;;;;;6339349;22;20041;-78
2022/10/25 07:27:57;;;;;;;29.65;5.68;;;11.80;99.90;;;;;;6312259;22;20451;-78
2022/10/25 07:30:22;;;;;;;24.08;6.18;;;11.80;99.90;;;;;;6312556;22;20021;-79
2022/10/25 07:32:48;;;;;;;20.95;5.15;;;11.90;99.90;;;;;;6340202;22;20015;-79
2022/10/25 07:35:14;;;;;;;24.83;6.28;;;11.90;99.90;;;;;;6312881;22;20018;-78
2022/10/25 07:37:39;;;;;;;28.40;6.03;;;11.90;99.90;;;;;;6339878;22;20021;-79
2022/10/25 07:40:06;;;;;;;24.30;6.10;;;12.00;99.90;;;;;;6340198;22;20019;-79
2022/10/25 07:42:31;;;;;;;23.42;5.43;;;12.00;99.90;;;;;;6312525;22;20015;-79
2022/10/25 07:44:57;;;;;;;24.95;5.38;;;12.10;99.90;;;;;;6339857;22;20015;-79
2022/10/25 07:47:22;;;;;;;25.95;6.53;;;12.10;99.90;;;;;;6339744;22;20019;-80
2022/10/25 07:49:48;;;;;;;21.35;5.18;;;12.10;99.90;;;;;;6311373;22;20015;-80
2022/10/25 07:52:14;;;;;;;26.98;6.40;;;12.20;99.90;;;;;;6312164;22;20015;-79
2022/10/25 07:54:39;;;;;;;26.17;5.50;;;12.20;99.90;;;;;;6312188;22;20374;-79
2022/10/25 07:57:09;;;;;;;21.75;5.47;;;12.30;99.90;;;;;;6340002;22;20015;-79
2022/10/25 07:59:35;;;;;;;26.23;5.28;;;12.40;99.90;;;;;;6311932;22;20061;-80
2022/10/25 08:02:01;;;;;;;28.77;5.70;;;12.40;99.90;;;;;;6340098;22;20014;-80
2022/10/25 08:04:30;;;;;;;23.35;5.50;;;12.40;99.90;;;;;;6312094;22;20017;-79
2022/10/25 08:06:59;;;;;;;21.60;6.10;;;12.40;99.90;;;;;;6339748;22;20076;-80
2022/10/25 08:09:24;;;;;;;25.95;5.95;;;12.50;99.90;;;;;;6311931;22;20338;-79
2022/10/25 08:11:50;;;;;;;20.08;5.47;;;12.70;99.90;;;;;;6312080;22;20490;-79
2022/10/25 08:14:16;;;;;;;21.83;5.47;;;12.80;99.90;;;;;;6312036;22;20018;-80
2022/10/25 08:16:41;;;;;;;27.63;5.55;;;12.90;99.90;;;;;;6312064;22;20093;-80
2022/10/25 08:19:07;;;;;;;26.73;6.57;;;12.90;99.90;;;;;;6311922;22;20015;-79
2022/10/25 08:21:33;;;;;;;23.73;5.40;;;12.90;99.90;;;;;;6311930;22;20385;-79
2022/10/25 08:23:58;;;;;;;21.70;5.32;;;12.90;99.90;;;;;;6339676;22;20025;-79
2022/10/25 08:26:25;;;;;;;25.10;5.63;;;12.90;99.90;;;;;;6339555;22;20078;-79
2022/10/25 08:28:51;;;;;;;18.40;5.63;;;12.90;99.90;;;;;;6311881;22;20098;-79
2022/10/25 08:31:17;;;;;;;17.85;5.53;;;12.90;99.90;;;;;;6339725;22;20043;-79
2022/10/25 08:33:42;;;;;;;22.65;5.75;;;12.90;99.90;;;;;;6311781;22;20080;-79
2022/10/25 08:36:08;;;;;;;16.27;5.38;;;13.00;99.90;;;;;;6339265;22;20019;-79
2022/10/25 08:38:34;;;;;;;19.25;5.57;;;13.00;99.90;;;;;;6311446;22;20453;-79
2022/10/25 08:41:23;;;;;;;18.58;6.45;;;13.00;99.90;;;;;;6311602;22;20022;-79
2022/10/25 08:44:11;;;;;;;22.75;5.60;;;13.00;99.90;;;;;;6339703;22;20011;-79
2022/10/25 08:46:45;;;;;;;18.65;5.80;;;13.10;99.90;;;;;;6311817;22;20030;-80
2022/10/25 08:49:24;;;;;;;22.23;6.43;;;13.10;99.90;;;;;;6311571;22;20465;-80
2022/10/25 08:51:51;;;;;;;18.13;5.70;;;13.10;99.90;;;;;;6311566;22;20093;-79
2022/10/25 08:54:39;;;;;;;18.63;5.20;;;13.10;99.90;;;;;;6339154;22;20022;-79
2022/10/25 08:57:13;;;;;;;24.30;5.43;;;13.30;99.90;;;;;;6339388;22;20023;-80
2022/10/25 08:59:44;;;;;;;21.95;6.28;;;13.40;99.90;;;;;;6311458;22;20037;-80
2022/10/25 09:02:20;;;;;;;24.73;5.95;;;13.50;99.90;;;;;;6339264;22;20096;-79
2022/10/25 09:04:46;;;;;;;25.73;6.55;;;13.60;99.90;;;;;;6339585;22;20046;-79
2022/10/25 09:07:29;;;;;;;22.77;5.80;;;13.70;99.90;;;;;;6311315;22;20019;-79
2022/10/25 09:10:18;;;;;;;26.73;6.82;;;13.60;99.90;;;;;;6339495;22;20010;-79
2022/10/25 09:12:59;;;;;;;19.48;5.20;;;13.70;99.90;;;;;;6310954;22;20507;-79
2022/10/25 09:15:31;;;;;;;26.35;5.57;;;13.90;99.90;;;;;;6339247;22;20027;-79
2022/10/25 09:17:57;;;;;;;19.42;5.05;;;14.00;99.90;;;;;;6339121;22;20094;-79
2022/10/25 09:20:46;;;;;;;19.55;4.55;;;14.10;99.90;;;;;;6338686;22;20343;-79
2022/10/25 09:23:27;;;;;;;14.38;4.70;;;14.30;99.90;;;;;;6338904;22;20030;-79
2022/10/25 09:26:07;;;;;;;15.68;4.10;;;14.40;99.90;;;;;;6338381;22;20006;-79
2022/10/25 09:28:51;;;;;;;23.02;4.72;;;14.30;99.90;;;;;;6308804;22;20023;-79
2022/10/25 09:31:23;;;;;;;15.13;4.05;;;14.30;99.90;;;;;;6338003;22;20091;-79
2022/10/25 09:33:58;;;;;;;19.73;4.60;;;14.20;99.90;;;;;;6338563;22;20018;-79
2022/10/25 09:36:29;;;;;;;19.40;4.38;;;14.30;99.90;;;;;;6311044;22;20454;-79
2022/10/25 09:39:00;;;;;;;15.70;3.70;;;14.30;99.90;;;;;;6339052;22;20014;-79
2022/10/25 09:41:34;;;;;;;13.88;3.58;;;14.30;99.90;;;;;;6311777;22;20045;-79
2022/10/25 09:44:16;;;;;;;17.58;4.03;;;14.20;99.90;;;;;;6310549;22;20019;-79
2022/10/25 09:46:43;;;;;;;17.60;4.22;;;14.10;99.90;;;;;;6311174;22;20019;-78
2022/10/25 09:49:15;;;;;;;15.57;3.20;;;14.10;99.90;;;;;;6338865;22;20009;-79
2022/10/25 09:52:03;;;;;;;15.77;4.20;;;14.10;99.90;;;;;;6338940;22;20023;-79
2022/10/25 09:54:44;;;;;;;15.10;3.20;;;14.10;99.90;;;;;;6339268;22;20018;-79
2022/10/25 09:57:09;;;;;;;19.10;3.58;;;14.30;99.90;;;;;;6339278;22;20014;-78
2022/10/25 09:59:35;;;;;;;16.38;3.88;;;14.30;99.90;;;;;;6339067;22;20157;-79
2022/10/25 10:02:01;;;;;;;17.88;3.85;;;14.40;99.90;;;;;;6339098;22;20018;-79
2022/10/25 10:04:34;;;;;;;14.07;3.67;;;14.40;99.90;;;;;;6311133;22;20392;-78
2022/10/25 10:07:30;;;;;;;11.35;3.63;;;14.60;99.90;;;;;;6311297;22;20030;-78
2022/10/25 10:10:00;;;;;;;19.70;3.92;;;14.50;99.90;;;;;;6339298;22;20015;-78
2022/10/25 10:12:50;;;;;;;12.63;3.47;;;14.60;99.90;;;;;;6311133;22;20010;-78
2022/10/25 10:15:28;;;;;;;17.20;3.75;;;14.80;99.90;;;;;;6339225;22;20065;-78
2022/10/25 10:18:20;;;;;;;14.05;3.50;;;14.90;99.90;;;;;;6339116;22;20006;-78
2022/10/25 10:21:04;;;;;;;16.38;2.97;;;14.80;99.90;;;;;;6310795;22;20380;-78
2022/10/25 10:23:35;;;;;;;14.70;3.38;;;15.00;99.90;;;;;;6338706;22;20030;-78
2022/10/25 10:26:12;;;;;;;13.27;2.58;;;15.10;99.90;;;;;;6339144;22;20010;-78
2022/10/25 10:28:44;;;;;;;13.27;2.70;;;15.10;99.90;;;;;;6339096;22;20034;-79
2022/10/25 10:31:09;;;;;;;17.00;2.97;;;15.20;99.90;;;;;;6311052;22;20544;-77
2022/10/25 10:33:37;;;;;;;15.15;2.58;;;15.30;99.90;;;;;;6338959;22;20054;-79
2022/10/25 10:36:24;;;;;;;14.63;2.42;;;15.40;99.90;;;;;;6310760;22;20453;-78
2022/10/25 10:38:50;;;;;;;15.70;3.20;;;15.40;99.90;;;;;;6338821;22;20073;-78
2022/10/25 10:41:23;;;;;;;15.50;3.10;;;15.50;99.90;;;;;;6311129;22;20090;-77
2022/10/25 10:43:49;;;;;;;14.10;2.50;;;15.50;99.90;;;;;;6338555;22;20454;-77
2022/10/25 10:46:18;;;;;;;12.85;2.30;;;15.60;99.90;;;;;;6338956;22;20050;-77
2022/10/25 10:48:51;;;;;;;14.00;2.50;;;15.70;99.90;;;;;;6338549;22;20021;-77
2022/10/25 10:51:19;;;;;;;17.50;2.30;;;15.70;99.90;;;;;;6311175;22;20018;-77
2022/10/25 10:53:45;;;;;;;14.23;2.75;;;15.80;99.90;;;;;;6338813;22;20015;-77
2022/10/25 10:56:20;;;;;;;13.73;2.80;;;15.70;99.90;;;;;;6338790;22;20109;-77
2022/10/25 10:58:49;;;;;;;15.63;1.80;;;15.60;99.90;;;;;;6311026;22;20427;-77
2022/10/25 11:01:31;;;;;;;8.55;1.70;;;15.50;99.90;;;;;;6340185;22;20342;-77
2022/10/25 11:03:58;;;;;;;22.30;2.67;;;15.60;99.90;;;;;;6312768;22;20011;-77
2022/10/25 11:06:35;;;;;;;13.30;1.85;;;15.90;99.90;;;;;;6312691;22;20019;-76
2022/10/25 11:09:15;;;;;;;11.23;1.63;;;16.00;99.90;;;;;;6340302;22;20438;-77
2022/10/25 11:11:41;;;;;;;8.10;1.77;;;16.20;99.90;;;;;;6340547;22;20018;-78
2022/10/25 11:14:12;;;;;;;14.20;2.13;;;16.40;99.90;;;;;;6340508;22;20006;-78
2022/10/25 11:17:15;;;;;;;12.40;1.42;;;16.60;99.90;;;;;;6340048;22;20387;-78
2022/10/25 11:19:51;;;;;;;13.73;1.75;;;16.70;99.90;;;;;;6340166;22;20054;-78
2022/10/25 11:22:32;;;;;;;17.33;2.05;;;16.80;99.90;;;;;;6340512;22;20011;-78
2022/10/25 11:25:07;;;;;;;9.77;1.60;;;16.60;99.90;;;;;;6340051;22;20058;-78
2022/10/25 11:28:05;;;;;;;12.23;2.33;;;16.50;99.90;;;;;;6312452;22;20350;-78
2022/10/25 11:30:54;;;;;;;12.77;1.52;;;16.60;99.90;;;;;;6340334;22;20091;-78
2022/10/25 11:33:41;;;;;;;12.68;1.73;;;16.40;99.90;;;;;;6323231;22;20015;-80
2022/10/25 11:36:13;;;;;;;11.57;1.90;;;16.20;99.90;;;;;;6312502;22;20015;-79
2022/10/25 11:39:04;;;;;;;11.45;1.67;;;16.20;99.90;;;;;;6340157;22;20015;-78
2022/10/25 11:41:35;;;;;;;10.13;1.90;;;16.20;99.90;;;;;;6340192;22;20089;-79
2022/10/25 11:44:27;;;;;;;9.13;2.85;;;16.20;99.90;;;;;;6340107;22;20011;-80
2022/10/25 11:47:14;;;;;;;12.45;2.30;;;16.00;99.90;;;;;;6312397;22;20022;-79
2022/10/25 11:50:15;;;;;;;9.18;2.20;;;16.00;99.90;;;;;;6340275;22;20036;-79
2022/10/25 11:53:18;;;;;;;10.43;2.22;;;15.90;99.90;;;;;;6339740;22;20450;-78
2022/10/25 11:56:17;;;;;;;12.48;1.73;;;15.70;99.90;;;;;;6339806;22;20050;-79
2022/10/25 11:59:10;;;;;;;9.60;1.45;;;15.60;99.90;;;;;;6339969;22;20033;-78
2022/10/25 12:02:10;;;;;;;9.98;1.40;;;15.60;99.90;;;;;;6312304;22;20022;-78
2022/10/25 12:05:03;;;;;;;9.68;1.30;;;15.50;99.90;;;;;;6312162;22;20453;-79
2022/10/25 12:07:42;;;;;;;15.85;2.03;;;15.50;99.90;;;;;;6340072;22;20038;-78
2022/10/25 12:10:41;;;;;;;12.27;1.80;;;15.40;99.90;;;;;;6339626;22;20495;-78
2022/10/25 12:13:20;;;;;;;14.70;1.75;;;15.40;99.90;;;;;;6308253;22;20019;-78
2022/10/25 12:15:49;;;;;;;11.88;1.38;;;15.30;99.90;;;;;;6339865;22;20069;-79
2022/10/25 12:18:27;;;;;;;11.10;1.75;;;15.30;99.90;;;;;;6312095;22;20014;-79
2022/10/25 12:20:54;;;;;;;15.18;2.13;;;15.30;99.90;;;;;;6339448;22;20019;-79
2022/10/25 12:23:23;;;;;;;8.57;1.30;;;15.20;99.90;;;;;;6339440;22;20350;-79
2022/10/25 12:26:10;;;;;;;10.70;1.20;;;15.20;99.90;;;;;;6339439;22;20334;-79
2022/10/25 12:28:45;;;;;;;16.15;2.28;;;15.30;99.90;;;;;;6339869;22;20086;-79
2022/10/25 12:31:22;;;;;;;12.88;1.60;;;15.40;99.90;;;;;;6312284;22;20030;-79
2022/10/25 12:33:58;;;;;;;12.23;1.45;;;15.40;99.90;;;;;;6339885;22;20025;-79
2022/10/25 12:36:31;;;;;;;11.30;1.58;;;15.50;99.90;;;;;;6339944;22;20046;-79
2022/10/25 12:39:00;;;;;;;7.05;1.05;;;15.60;99.90;;;;;;6311514;22;20027;-79
2022/10/25 12:41:35;;;;;;;7.85;1.50;;;15.90;99.90;;;;;;6339483;22;20023;-79
2022/10/25 12:44:14;;;;;;;8.30;1.27;;;16.00;99.90;;;;;;6311737;22;20018;-79
2022/10/25 12:47:02;;;;;;;11.07;1.25;;;15.90;99.90;;;;;;6311753;22;20116;-79
2022/10/25 12:49:35;;;;;;;8.45;1.55;;;16.00;99.90;;;;;;6311866;22;20443;-79
2022/10/25 12:52:37;;;;;;;10.77;1.30;;;16.10;99.90;;;;;;6339449;22;20093;-79
2022/10/25 12:55:27;;;;;;;9.20;1.20;;;16.30;99.90;;;;;;6339638;22;20060;-79
2022/10/25 12:58:22;;;;;;;6.65;1.27;;;16.10;99.90;;;;;;6339301;22;20360;-79
2022/10/25 13:01:12;;;;;;;10.57;1.92;;;16.00;99.90;;;;;;6311558;22;20434;-79